Time;durP1;ratioP1;P1;durP2;ratioP2;P2;SDS_P1;SDS_P2;PMS_P1;PMS_P2;Temp;Humidity;BMP_temperature;BMP_pressure;BME280_temperature;BME280_humidity;BME280_pressure;Samples;Min_cycle;Max_cycle;Signal;HPM_P1;HPM_P2
2022/11/01 00:02:24;;;;;;;16.10;8.68;;;;;;;15.19;85.04;100801.25;5063835;28;20055;-69
2022/11/01 00:04:49;;;;;;;22.80;9.38;;;;;;;15.21;85.15;100789.88;5062493;28;20722;-68
2022/11/01 00:07:14;;;;;;;22.15;9.40;;;;;;;15.24;85.42;100791.66;5062786;28;20029;-69
2022/11/01 00:09:40;;;;;;;17.20;8.23;;;;;;;15.28;84.77;100789.03;5061979;28;20021;-68
2022/11/01 00:12:05;;;;;;;19.67;9.00;;;;;;;15.32;85.08;100787.28;5063617;28;20271;-69
2022/11/01 00:14:30;;;;;;;17.20;8.25;;;;;;;15.38;85.09;100787.31;5062276;28;20033;-69
2022/11/01 00:16:56;;;;;;;17.00;8.02;;;;;;;15.40;85.02;100782.94;5077933;28;20021;-69
2022/11/01 00:19:21;;;;;;;17.95;8.48;;;;;;;15.46;84.84;100775.06;5063202;28;20207;-68
2022/11/01 00:21:46;;;;;;;17.70;8.05;;;;;;;15.53;84.56;100780.34;5063042;28;20075;-69
2022/11/01 00:24:12;;;;;;;17.55;8.32;;;;;;;15.60;84.17;100776.88;5063234;28;20024;-68
2022/11/01 00:26:37;;;;;;;22.75;8.88;;;;;;;15.65;84.04;100781.22;5063824;28;20052;-75
2022/11/01 00:29:02;;;;;;;18.63;8.10;;;;;;;15.67;84.08;100778.63;5063536;28;20180;-74
2022/11/01 00:31:28;;;;;;;21.27;8.43;;;;;;;15.72;84.36;100771.63;5061937;28;20055;-75
2022/11/01 00:33:53;;;;;;;19.02;8.07;;;;;;;15.75;84.12;100776.88;5054454;28;20041;-74
2022/11/01 00:36:19;;;;;;;17.90;7.60;;;;;;;15.80;84.28;100774.28;5062239;28;20025;-75
2022/11/01 00:38:48;;;;;;;17.75;7.85;;;;;;;15.82;83.93;100769.91;5063377;28;20171;-75
2022/11/01 00:41:14;;;;;;;18.73;8.07;;;;;;;15.82;84.17;100759.41;5062539;28;20025;-75
2022/11/01 00:43:39;;;;;;;16.85;7.95;;;;;;;15.84;84.22;100770.78;5062689;28;20037;-75
2022/11/01 00:46:05;;;;;;;16.35;7.50;;;;;;;15.89;84.14;100776.03;5063230;28;20037;-75
2022/11/01 00:48:30;;;;;;;16.00;7.80;;;;;;;15.91;83.95;100772.53;5063052;28;20098;-75
2022/11/01 00:50:56;;;;;;;15.60;7.72;;;;;;;15.90;84.07;100765.53;5062440;28;20029;-75
2022/11/01 00:53:21;;;;;;;22.45;7.90;;;;;;;15.89;83.96;100771.66;5062446;28;20037;-75
2022/11/01 00:55:47;;;;;;;15.63;7.55;;;;;;;15.87;84.00;100769.91;5062411;28;20036;-74
2022/11/01 00:58:12;;;;;;;15.40;7.30;;;;;;;15.86;84.22;100761.16;5061737;28;20024;-69
2022/11/01 01:00:38;;;;;;;20.73;8.18;;;;;;;15.85;84.04;100745.41;5062176;28;20051;-69
2022/11/01 01:03:04;;;;;;;18.80;8.02;;;;;;;15.86;84.42;100760.25;5062931;28;20036;-69
2022/11/01 01:05:30;;;;;;;19.80;8.25;;;;;;;15.86;84.59;100752.38;5062783;28;20290;-68
2022/11/01 01:07:56;;;;;;;14.73;7.50;;;;;;;15.87;85.00;100746.25;5061734;28;20025;-69
2022/11/01 01:10:21;;;;;;;17.17;8.25;;;;;;;15.90;84.52;100748.88;5060959;28;20080;-69
2022/11/01 01:12:47;;;;;;;17.02;7.53;;;;;;;15.90;84.80;100751.50;5061203;28;20028;-69
2022/11/01 01:15:13;;;;;;;15.43;7.28;;;;;;;15.90;85.04;100746.25;5060816;28;20319;-69
2022/11/01 01:17:38;;;;;;;18.63;8.00;;;;;;;15.90;85.21;100743.63;5061665;28;20095;-69
2022/11/01 01:20:04;;;;;;;19.65;9.00;;;;;;;15.92;85.36;100742.75;5061519;28;20044;-69
2022/11/01 01:22:30;;;;;;;20.65;8.10;;;;;;;15.95;85.14;100744.53;5062458;28;20049;-69
2022/11/01 01:24:55;;;;;;;18.95;8.18;;;;;;;15.95;86.05;100748.00;5062713;28;20024;-69
2022/11/01 01:27:20;;;;;;;19.27;8.32;;;;;;;15.96;85.28;100749.78;5062418;28;20090;-75
2022/11/01 01:29:45;;;;;;;14.88;7.93;;;;;;;15.97;85.69;100746.28;5061760;28;20321;-75
2022/11/01 01:32:15;;;;;;;17.35;8.20;;;;;;;15.98;85.47;100747.16;5077936;28;20029;-75
2022/11/01 01:34:40;;;;;;;17.88;8.40;;;;;;;15.99;85.85;100754.16;5062192;28;20067;-69
2022/11/01 01:37:09;;;;;;;17.83;7.80;;;;;;;16.03;85.91;100747.13;5062482;28;20045;-69
2022/11/01 01:39:35;;;;;;;;;;;;;;;16.07;85.76;100747.13;5062819;28;20033;-69
2022/11/01 01:42:10;;;;;;;17.00;8.05;;;;;;;16.04;85.80;100752.38;5062086;28;19916;-68
2022/11/01 01:44:49;;;;;;;19.10;8.68;;;;;;;16.03;85.62;100745.38;5062367;28;20183;-69
2022/11/01 01:47:36;;;;;;;20.48;8.02;;;;;;;16.03;85.69;100755.03;5062211;28;20021;-69
2022/11/01 01:50:06;;;;;;;19.95;8.57;;;;;;;16.04;86.08;100744.50;5061476;28;20021;-69
2022/11/01 01:52:38;;;;;;;20.13;8.85;;;;;;;16.05;85.99;100743.63;5061812;28;20080;-68
2022/11/01 01:55:07;;;;;;;18.38;9.10;;;;;;;16.07;86.34;100735.75;5088072;28;20052;-69
2022/11/01 01:57:34;;;;;;;17.00;8.32;;;;;;;16.07;86.05;100730.50;5055738;28;20025;-75
2022/11/01 01:59:59;;;;;;;21.23;8.93;;;;;;;16.08;86.34;100732.25;5047848;28;20088;-74
2022/11/01 02:02:24;;;;;;;19.45;8.30;;;;;;;16.10;86.13;100741.88;5061505;28;20036;-75
2022/11/01 02:04:56;;;;;;;21.70;8.77;;;;;;;16.12;86.13;100740.13;5062106;28;20200;-75
2022/11/01 02:07:21;;;;;;;17.48;7.80;;;;;;;16.16;86.04;100731.38;5062634;28;20078;-75
2022/11/01 02:09:46;;;;;;;18.15;8.20;;;;;;;16.19;85.79;100735.72;5060967;28;20025;-75
2022/11/01 02:12:12;;;;;;;18.85;8.45;;;;;;;16.20;85.67;100740.09;5060912;28;20016;-75
2022/11/01 02:14:41;;;;;;;17.00;7.85;;;;;;;16.19;85.64;100730.47;5061980;28;20045;-75
2022/11/01 02:17:12;;;;;;;22.98;8.80;;;;;;;16.21;85.55;100741.00;5062006;28;20025;-75
2022/11/01 02:20:09;;;;;;;20.20;8.23;;;;;;;16.21;86.18;100743.63;5060909;28;20183;-75
2022/11/01 02:23:06;;;;;;;17.48;8.25;;;;;;;16.23;86.09;100749.75;5039174;28;20084;-75
2022/11/01 02:25:55;;;;;;;18.65;7.82;;;;;;;16.23;85.58;100742.72;5060779;28;20032;-74
2022/11/01 02:28:44;;;;;;;22.13;7.82;;;;;;;16.23;85.91;100745.34;5061826;28;20021;-69
2022/11/01 02:31:16;;;;;;;21.83;8.32;;;;;;;16.23;85.78;100742.72;5059754;28;20055;-69
2022/11/01 02:33:47;;;;;;;21.60;8.05;;;;;;;16.21;85.59;100749.75;5077429;28;20056;-68
2022/11/01 02:36:49;;;;;;;22.48;7.82;;;;;;;16.23;85.54;100741.88;5061731;28;20072;-68
2022/11/01 02:39:14;;;;;;;17.00;7.57;;;;;;;16.22;85.10;100756.78;5061196;28;20063;-69
2022/11/01 02:42:13;;;;;;;14.82;7.85;;;;;;;16.23;85.06;100755.00;5059884;28;20025;-69
2022/11/01 02:44:41;;;;;;;;;;;;;;;16.23;85.45;100753.25;5062480;28;20048;-69
2022/11/01 02:47:10;;;;;;;15.63;8.13;;;;;;;16.21;85.26;100759.41;5064747;28;19944;-68
2022/11/01 02:49:39;;;;;;;16.85;8.00;;;;;;;16.21;85.17;100756.78;5064166;28;20090;-69
2022/11/01 02:52:08;;;;;;;20.65;7.47;;;;;;;16.20;85.04;100768.16;5063915;28;20086;-69
2022/11/01 02:54:41;;;;;;;13.93;7.50;;;;;;;16.16;85.43;100757.66;5065449;28;20033;-69
2022/11/01 02:57:15;;;;;;;19.45;8.05;;;;;;;16.17;85.66;100758.53;5065135;28;20299;-68
2022/11/01 02:59:44;;;;;;;20.30;8.07;;;;;;;16.16;85.26;100762.91;5065244;28;20112;-69
2022/11/01 03:02:38;;;;;;;20.08;7.70;;;;;;;16.13;85.59;100762.03;5061664;28;20027;-70
2022/11/01 03:05:35;;;;;;;20.40;8.00;;;;;;;16.11;85.68;100776.94;5079524;28;20127;-69
2022/11/01 03:08:06;;;;;;;17.58;7.63;;;;;;;16.09;85.87;100776.94;5047433;28;20041;-69
2022/11/01 03:11:10;;;;;;;15.10;8.05;;;;;;;16.08;86.00;100775.16;5064146;28;20024;-69
2022/11/01 03:13:57;;;;;;;22.05;7.68;;;;;;;16.08;85.96;100785.69;5051681;28;20033;-69
2022/11/01 03:17:03;;;;;;;17.90;7.85;;;;;;;16.08;86.04;100790.09;5064884;28;20106;-69
2022/11/01 03:19:31;;;;;;;19.85;8.45;;;;;;;16.06;86.10;100786.56;5027784;28;20046;-69
2022/11/01 03:22:14;;;;;;;17.75;7.82;;;;;;;16.03;86.47;100797.94;5063709;28;20048;-69
2022/11/01 03:24:48;;;;;;;12.93;6.80;;;;;;;16.04;85.01;100802.31;5064791;28;20074;-69
2022/11/01 03:27:26;;;;;;;17.88;6.97;;;;;;;16.03;84.52;100803.19;5064468;28;20032;-75
2022/11/01 03:29:59;;;;;;;14.43;6.90;;;;;;;16.01;84.16;100815.47;5057399;28;20028;-75
2022/11/01 03:32:29;;;;;;;17.10;7.25;;;;;;;15.98;83.27;100821.59;5058115;28;20032;-75
2022/11/01 03:34:57;;;;;;;14.80;6.13;;;;;;;15.96;81.43;100825.97;5062266;28;20033;-75
2022/11/01 03:37:23;;;;;;;10.00;5.20;;;;;;;15.95;80.36;100825.97;5062446;28;20032;-75
2022/11/01 03:39:51;;;;;;;12.02;4.82;;;;;;;15.93;80.12;100827.72;5063260;28;20027;-75
2022/11/01 03:42:22;;;;;;;8.67;4.60;;;;;;;15.90;79.14;100831.25;5063461;28;20065;-75
2022/11/01 03:44:57;;;;;;;10.00;3.90;;;;;;;15.86;77.39;100836.47;5064215;28;20017;-75
2022/11/01 03:47:22;;;;;;;10.70;4.20;;;;;;;15.82;77.16;100848.72;5079654;28;20021;-76
2022/11/01 03:50:23;;;;;;;9.02;3.25;;;;;;;15.79;76.67;100840.84;5064207;28;20286;-75
2022/11/01 03:52:49;;;;;;;7.32;3.13;;;;;;;15.73;73.02;100860.06;5062862;28;20302;-75
2022/11/01 03:55:16;;;;;;;6.32;2.65;;;;;;;15.66;72.25;100860.91;5064215;28;20026;-76
2022/11/01 03:57:53;;;;;;;6.35;2.17;;;;;;;15.60;71.95;100866.16;5063054;28;20075;-75
2022/11/01 04:00:28;;;;;;;8.93;2.05;;;;;;;15.56;70.03;100885.41;5063870;28;20029;-76
2022/11/01 04:02:54;;;;;;;7.18;2.00;;;;;;;15.53;69.15;100874.91;5058094;28;20021;-76
2022/11/01 04:05:22;;;;;;;5.78;1.95;;;;;;;15.45;69.12;100874.84;5079125;28;20017;-76
2022/11/01 04:07:48;;;;;;;5.85;1.80;;;;;;;15.39;68.26;100872.19;5063851;28;20020;-76
2022/11/01 04:10:14;;;;;;;5.43;1.73;;;;;;;15.33;68.52;100899.31;5063773;28;20135;-76
2022/11/01 04:12:42;;;;;;;8.52;1.83;;;;;;;15.28;67.45;100898.44;5062773;28;20079;-76
2022/11/01 04:20:51;;;;;;;6.93;1.70;;;;;;;15.09;67.33;100921.94;5061820;28;20083;-76
2022/11/01 04:23:16;;;;;;;4.78;1.20;;;;;;;15.04;67.15;100926.25;5051726;28;20142;-75
2022/11/01 04:25:47;;;;;;;5.45;1.67;;;;;;;14.98;68.36;100931.47;5062720;28;20036;-76
2022/11/01 04:28:13;;;;;;;3.47;1.38;;;;;;;14.92;68.45;100932.31;5063151;28;20025;-76
2022/11/01 04:30:39;;;;;;;6.13;1.52;;;;;;;14.88;68.59;100938.41;5062501;28;20044;-76
2022/11/01 04:33:04;;;;;;;4.60;1.50;;;;;;;14.83;69.32;100947.09;5062493;28;20287;-76
2022/11/01 04:35:30;;;;;;;4.80;1.27;;;;;;;14.76;68.74;100954.94;5063277;28;20037;-74
2022/11/01 04:37:56;;;;;;;6.43;1.45;;;;;;;14.70;68.75;100957.50;5063384;28;20020;-75
2022/11/01 04:40:23;;;;;;;3.60;1.05;;;;;;;14.67;68.52;100969.69;5062420;28;20047;-76
2022/11/01 04:42:48;;;;;;;5.68;1.10;;;;;;;14.62;68.81;100979.28;5063373;28;20036;-76
2022/11/01 04:45:13;;;;;;;5.03;1.30;;;;;;;14.58;68.81;100975.72;5063031;28;20029;-76
2022/11/01 04:47:39;;;;;;;6.32;1.20;;;;;;;14.52;68.76;100989.63;5063030;28;20024;-76
2022/11/01 04:50:04;;;;;;;9.13;1.33;;;;;;;14.48;68.77;100995.72;5063234;28;20037;-76
2022/11/01 04:52:30;;;;;;;5.20;1.25;;;;;;;14.44;68.48;100994.81;5062252;28;20029;-76
2022/11/01 04:54:55;;;;;;;5.03;1.35;;;;;;;14.42;69.17;101016.63;5063100;28;20033;-76
2022/11/01 04:57:23;;;;;;;3.70;1.00;;;;;;;14.37;69.05;101013.97;5061738;28;20029;-68
2022/11/01 04:59:50;;;;;;;4.75;1.15;;;;;;;14.32;68.97;101020.88;5062860;28;20334;-69
2022/11/01 05:02:16;;;;;;;5.60;1.25;;;;;;;14.29;68.83;101027.84;5062208;28;20179;-69
2022/11/01 05:04:42;;;;;;;5.00;1.20;;;;;;;14.23;69.30;101033.91;5062141;28;20029;-69
2022/11/01 05:07:07;;;;;;;3.67;0.90;;;;;;;14.19;69.08;101045.22;5060896;28;21363;-69
2022/11/01 05:09:32;;;;;;;4.43;1.02;;;;;;;14.15;69.01;101053.88;5062614;28;20029;-69
2022/11/01 05:11:57;;;;;;;4.38;1.00;;;;;;;14.11;68.80;101060.84;5061852;28;20160;-69
2022/11/01 05:14:23;;;;;;;3.50;1.00;;;;;;;14.08;68.64;101048.56;5062316;28;20029;-69
2022/11/01 05:16:48;;;;;;;4.80;1.00;;;;;;;14.05;68.92;101056.41;5062866;28;20184;-69
2022/11/01 05:19:15;;;;;;;2.72;1.00;;;;;;;14.00;69.17;101065.94;5062674;28;20033;-69
2022/11/01 05:21:40;;;;;;;3.35;1.02;;;;;;;13.97;69.41;101054.53;5062040;28;20084;-69
2022/11/01 05:24:06;;;;;;;5.80;1.10;;;;;;;13.91;69.32;101064.06;5062546;28;20027;-69
2022/11/01 05:26:31;;;;;;;3.10;1.00;;;;;;;13.86;69.47;101062.25;5061978;28;20291;-69
2022/11/01 05:28:57;;;;;;;6.78;1.40;;;;;;;13.83;69.91;101075.31;5061884;28;20029;-69
2022/11/01 05:31:22;;;;;;;5.05;1.00;;;;;;;13.80;69.95;101068.31;5061490;28;20051;-69
2022/11/01 05:33:47;;;;;;;3.28;1.08;;;;;;;13.78;69.45;101070.00;5077783;28;20048;-69
2022/11/01 05:36:12;;;;;;;4.57;1.60;;;;;;;13.76;70.18;101076.06;5062362;28;20264;-69
2022/11/01 05:38:39;;;;;;;4.95;1.00;;;;;;;13.71;70.18;101079.50;5062462;28;20331;-69
2022/11/01 05:41:04;;;;;;;4.60;1.20;;;;;;;13.69;70.17;101070.75;5062470;28;20025;-69
2022/11/01 05:43:30;;;;;;;5.57;1.15;;;;;;;13.65;70.33;101076.81;5059329;28;20025;-69
2022/11/01 05:45:55;;;;;;;3.20;1.08;;;;;;;13.62;71.20;101086.38;5062061;28;20021;-69
2022/11/01 05:48:20;;;;;;;4.07;1.00;;;;;;;13.60;71.00;101096.81;5062162;28;20339;-69
2022/11/01 05:50:46;;;;;;;2.92;1.00;;;;;;;13.57;71.26;101091.53;5062735;28;20013;-69
2022/11/01 05:53:12;;;;;;;3.83;1.20;;;;;;;13.53;71.38;101093.22;5061183;28;20033;-69
2022/11/01 05:55:38;;;;;;;5.53;1.80;;;;;;;13.51;70.68;101094.94;5062449;28;20028;-69
2022/11/01 05:58:03;;;;;;;4.28;1.33;;;;;;;13.49;69.66;101119.34;5061223;28;20055;-76
2022/11/01 06:00:30;;;;;;;7.10;1.73;;;;;;;13.47;69.67;101107.94;5060870;28;20033;-76
2022/11/01 06:02:59;;;;;;;3.63;1.40;;;;;;;13.44;67.63;101110.50;5062342;28;20043;-76
2022/11/01 06:05:25;;;;;;;4.30;1.30;;;;;;;13.42;67.30;101107.00;5061650;28;20271;-75
2022/11/01 06:07:51;;;;;;;4.18;1.55;;;;;;;13.38;67.00;101109.56;5060493;28;20017;-76
2022/11/01 06:10:16;;;;;;;5.22;1.42;;;;;;;13.35;66.75;101117.38;5059194;28;20063;-76
2022/11/01 06:12:41;;;;;;;4.90;1.30;;;;;;;13.32;66.54;101122.50;5060078;28;20033;-76
2022/11/01 06:15:07;;;;;;;5.68;1.42;;;;;;;13.30;66.90;101128.59;5062032;28;20263;-76
2022/11/01 06:17:32;;;;;;;4.22;1.35;;;;;;;13.27;66.88;101139.88;5059400;28;20033;-76
2022/11/01 06:19:58;;;;;;;6.80;1.45;;;;;;;13.22;67.32;101139.81;5059116;28;20104;-76
2022/11/01 06:22:23;;;;;;;5.05;1.20;;;;;;;13.19;67.96;101146.69;5063627;28;20017;-76
2022/11/01 06:24:49;;;;;;;4.53;1.30;;;;;;;13.16;68.52;101152.75;5065843;28;20025;-76
2022/11/01 06:27:14;;;;;;;5.47;1.60;;;;;;;13.14;68.87;101143.13;5066009;28;20049;-69
2022/11/01 06:29:39;;;;;;;4.50;1.20;;;;;;;13.12;69.48;101150.06;5063417;28;20255;-69
2022/11/01 06:32:05;;;;;;;5.95;1.15;;;;;;;13.09;69.59;101150.88;5065901;28;20029;-69
2022/11/01 06:34:31;;;;;;;5.65;1.30;;;;;;;13.08;69.61;101161.31;5065567;28;20271;-69
2022/11/01 06:36:56;;;;;;;4.32;1.05;;;;;;;13.06;70.04;101158.69;5066209;28;20025;-69
2022/11/01 06:39:22;;;;;;;7.60;1.23;;;;;;;13.03;70.35;101166.47;5064162;28;20032;-69
2022/11/01 06:41:47;;;;;;;5.85;1.00;;;;;;;13.03;70.28;101174.31;5064494;28;20028;-69
2022/11/01 06:44:12;;;;;;;9.25;1.73;;;;;;;13.02;70.81;101169.94;5064658;28;20350;-69
2022/11/01 06:46:38;;;;;;;6.18;1.08;;;;;;;13.00;70.62;101177.75;5065577;28;20323;-69
2022/11/01 06:49:03;;;;;;;8.43;1.38;;;;;;;12.99;71.21;101183.88;5062561;28;20056;-69
2022/11/01 06:51:28;;;;;;;11.00;1.52;;;;;;;12.97;71.02;101185.53;5065377;28;20041;-69
2022/11/01 06:53:54;;;;;;;5.40;1.20;;;;;;;12.95;71.18;101191.63;5063469;28;20064;-69
2022/11/01 06:56:19;;;;;;;6.38;1.67;;;;;;;12.93;71.51;101198.53;5065218;28;20082;-76
2022/11/01 06:58:50;;;;;;;7.82;1.40;;;;;;;12.90;71.24;101193.25;5063366;28;20067;-76
2022/11/01 07:01:20;;;;;;;6.18;1.08;;;;;;;12.88;71.01;101211.53;5065288;28;20032;-76
2022/11/01 07:03:49;;;;;;;6.10;1.20;;;;;;;12.87;71.45;101201.91;5065731;28;20021;-76
2022/11/01 07:06:14;;;;;;;5.20;1.20;;;;;;;12.83;71.98;101205.31;5063886;28;20106;-76
2022/11/01 07:08:40;;;;;;;6.75;1.08;;;;;;;12.79;72.02;101207.00;5062049;28;20265;-75
2022/11/01 07:11:05;;;;;;;5.68;1.27;;;;;;;12.78;71.95;101209.59;5064042;28;20060;-75
2022/11/01 07:13:32;;;;;;;6.15;1.63;;;;;;;12.77;72.03;101218.28;5079053;28;20217;-76
2022/11/01 07:16:00;;;;;;;7.32;1.38;;;;;;;12.75;72.05;101222.59;5064879;28;20028;-76
2022/11/01 07:18:28;;;;;;;9.05;1.38;;;;;;;12.74;71.74;101226.94;5078197;28;20253;-77
2022/11/01 07:20:54;;;;;;;9.63;1.60;;;;;;;12.74;71.95;101241.75;5062933;28;20031;-76
2022/11/01 07:23:19;;;;;;;8.05;1.33;;;;;;;12.72;71.94;101238.22;5064807;28;20052;-76
2022/11/01 07:25:49;;;;;;;5.88;1.38;;;;;;;12.72;72.02;101253.91;5064759;28;20024;-75
2022/11/01 07:28:15;;;;;;;9.27;1.70;;;;;;;12.68;71.21;101256.44;5061360;28;20335;-75
2022/11/01 07:30:40;;;;;;;6.30;1.35;;;;;;;12.69;71.54;101265.19;5080146;28;20082;-76
2022/11/01 07:33:05;;;;;;;7.47;1.20;;;;;;;12.68;71.37;101263.41;5063269;28;20032;-77
2022/11/01 07:35:31;;;;;;;14.73;2.03;;;;;;;12.65;71.04;101248.53;5062348;28;20082;-75
2022/11/01 07:37:58;;;;;;;6.70;1.33;;;;;;;12.64;71.14;101267.72;5063176;28;20096;-76
2022/11/01 07:40:26;;;;;;;5.60;1.20;;;;;;;12.63;71.04;101275.50;5063659;28;20369;-76
2022/11/01 07:42:53;;;;;;;10.10;1.42;;;;;;;12.60;70.78;101276.34;5063899;28;20096;-76
2022/11/01 07:45:19;;;;;;;5.70;1.45;;;;;;;12.60;70.97;101284.16;5062008;28;20012;-76
2022/11/01 07:47:44;;;;;;;12.10;1.80;;;;;;;12.60;71.05;101293.72;5063236;28;20306;-75
2022/11/01 07:50:09;;;;;;;11.00;2.00;;;;;;;12.60;70.74;101278.03;5058136;28;20028;-76
2022/11/01 07:52:35;;;;;;;8.25;1.65;;;;;;;12.59;71.21;101287.63;5060030;28;20165;-76
2022/11/01 07:55:00;;;;;;;6.50;1.55;;;;;;;12.60;71.10;101291.09;5060235;28;20272;-76
2022/11/01 07:57:25;;;;;;;11.48;1.95;;;;;;;12.58;71.04;101293.69;5060280;28;20309;-69
2022/11/01 07:59:50;;;;;;;9.70;1.58;;;;;;;12.60;70.46;101301.56;5061901;28;20023;-68
2022/11/01 08:02:16;;;;;;;8.75;1.80;;;;;;;12.59;70.68;101308.53;5060821;28;20021;-69
2022/11/01 08:04:41;;;;;;;9.82;2.05;;;;;;;12.59;70.87;101311.16;5062795;28;20211;-69
2022/11/01 08:07:06;;;;;;;11.13;1.73;;;;;;;12.60;70.56;101320.78;5063829;28;20051;-69
2022/11/01 08:09:31;;;;;;;9.05;1.70;;;;;;;12.60;70.48;101315.53;5063756;28;20025;-69
2022/11/01 08:11:58;;;;;;;8.75;1.40;;;;;;;12.61;71.07;101313.81;5063015;28;20093;-69
2022/11/01 08:14:23;;;;;;;9.98;2.10;;;;;;;12.61;70.95;101319.91;5062915;28;20039;-69
2022/11/01 08:16:54;;;;;;;10.40;1.40;;;;;;;12.62;71.07;101321.69;5063750;28;20083;-69
2022/11/01 08:19:19;;;;;;;7.43;1.45;;;;;;;12.63;71.01;101331.28;5063358;28;20017;-69
2022/11/01 08:21:45;;;;;;;6.47;1.40;;;;;;;12.63;70.82;101323.44;5062359;28;20141;-68
2022/11/01 08:24:10;;;;;;;8.90;1.48;;;;;;;12.63;70.59;101328.69;5062602;28;20659;-68
2022/11/01 08:26:35;;;;;;;11.82;1.88;;;;;;;12.63;70.67;101344.38;5078828;28;20078;-75
2022/11/01 08:29:00;;;;;;;9.15;1.40;;;;;;;12.64;70.45;101346.16;5059180;28;20097;-76
2022/11/01 08:31:26;;;;;;;11.10;2.22;;;;;;;12.65;70.30;101347.00;5078709;28;20028;-76
2022/11/01 08:33:51;;;;;;;9.75;1.70;;;;;;;12.66;70.17;101346.19;5062066;28;20060;-76
2022/11/01 08:36:16;;;;;;;13.40;1.70;;;;;;;12.67;70.21;101355.75;5062835;28;20017;-76
2022/11/01 08:38:43;;;;;;;10.77;1.65;;;;;;;12.66;70.15;101340.94;5062084;28;20226;-76
2022/11/01 08:41:08;;;;;;;8.52;2.25;;;;;;;12.65;70.46;101352.25;5060840;28;20040;-75
2022/11/01 08:43:33;;;;;;;7.88;1.33;;;;;;;12.67;70.49;101350.53;5060658;28;20017;-75
2022/11/01 08:45:59;;;;;;;12.93;1.70;;;;;;;12.69;69.95;101348.84;5060057;28;20161;-76
2022/11/01 08:48:24;;;;;;;8.82;1.70;;;;;;;12.71;69.85;101344.53;5062936;28;20016;-76
2022/11/01 08:50:49;;;;;;;7.93;1.40;;;;;;;12.72;69.93;101346.31;5059644;28;20040;-75
2022/11/01 08:53:14;;;;;;;9.38;1.77;;;;;;;12.74;69.78;101359.41;5060158;28;20033;-75
2022/11/01 08:55:40;;;;;;;8.70;1.60;;;;;;;12.75;70.20;101354.22;5050294;28;20078;-76
2022/11/01 08:58:06;;;;;;;7.28;1.38;;;;;;;12.77;70.29;101360.34;5060094;28;20039;-76
2022/11/01 09:00:32;;;;;;;9.98;1.70;;;;;;;12.79;69.89;101360.38;5062156;28;20029;-77
2022/11/01 09:02:57;;;;;;;9.52;2.28;;;;;;;12.81;69.56;101358.72;5060856;28;20048;-76
2022/11/01 09:05:23;;;;;;;9.93;2.00;;;;;;;12.84;69.85;101379.69;5060473;28;20330;-76
2022/11/01 09:07:48;;;;;;;8.10;1.50;;;;;;;12.85;69.78;101371.00;5061171;28;20035;-76
2022/11/01 09:10:15;;;;;;;9.48;1.58;;;;;;;12.87;69.32;101374.53;5061778;28;20032;-76
2022/11/01 09:12:41;;;;;;;9.10;1.90;;;;;;;12.89;70.43;101370.22;5060948;28;20211;-76
2022/11/01 09:15:07;;;;;;;8.70;1.65;;;;;;;12.92;69.25;101364.16;5062431;28;20187;-76
2022/11/01 09:17:33;;;;;;;6.63;1.77;;;;;;;12.93;69.45;101374.66;5060467;28;20035;-76
2022/11/01 09:19:59;;;;;;;10.82;2.05;;;;;;;12.94;69.55;101381.66;5059487;28;20045;-76
2022/11/01 09:22:25;;;;;;;8.18;1.55;;;;;;;12.97;69.47;101380.84;5059044;28;20278;-74
2022/11/01 09:24:50;;;;;;;10.07;1.52;;;;;;;13.00;69.78;101388.78;5062071;28;20294;-75
2022/11/01 09:27:16;;;;;;;9.80;1.75;;;;;;;13.00;69.58;101384.41;5060654;28;20017;-68
2022/11/01 09:29:41;;;;;;;12.88;2.10;;;;;;;13.02;70.37;101385.34;5061521;28;20024;-66
2022/11/01 09:32:06;;;;;;;12.68;2.00;;;;;;;13.08;70.23;101383.69;5060596;28;20029;-66
2022/11/01 09:34:32;;;;;;;7.78;1.75;;;;;;;13.10;70.35;101390.75;5061006;28;20048;-66
2022/11/01 09:36:58;;;;;;;10.80;1.92;;;;;;;13.14;69.68;101389.09;5062572;28;20275;-66
2022/11/01 09:39:23;;;;;;;9.07;1.95;;;;;;;13.17;69.29;101399.63;5062248;28;20017;-66
2022/11/01 09:41:57;;;;;;;10.88;1.90;;;;;;;13.20;69.60;101410.16;5061131;28;20171;-66
2022/11/01 09:44:27;;;;;;;7.72;1.45;;;;;;;13.19;69.68;101409.28;5060887;28;20021;-66
2022/11/01 09:47:21;;;;;;;9.23;1.50;;;;;;;13.25;70.22;101418.09;5061559;28;20021;-66
2022/11/01 09:49:59;;;;;;;8.07;1.63;;;;;;;13.26;69.49;101420.75;5051877;28;20048;-66
2022/11/01 09:52:24;;;;;;;10.52;2.03;;;;;;;13.29;68.86;101428.66;5061131;28;20080;-66
2022/11/01 09:54:50;;;;;;;12.68;2.00;;;;;;;13.31;69.56;101424.34;5063287;28;20041;-66
2022/11/01 09:57:34;;;;;;;9.35;2.05;;;;;;;13.35;68.98;101436.69;5081852;28;20278;-66
2022/11/01 10:00:06;;;;;;;5.55;1.67;;;;;;;13.37;69.25;101442.84;5066360;28;20029;-66
2022/11/01 10:03:14;;;;;;;9.63;1.80;;;;;;;13.42;69.48;101447.28;5065022;28;20234;-66
2022/11/01 10:05:40;;;;;;;9.32;1.83;;;;;;;13.43;69.09;101447.31;5066300;28;20259;-66
2022/11/01 10:08:08;;;;;;;13.63;2.00;;;;;;;13.47;69.18;101446.53;5064288;28;20056;-66
2022/11/01 10:10:45;;;;;;;7.22;1.52;;;;;;;13.55;69.37;101454.53;5058656;28;20047;-66
2022/11/01 10:13:45;;;;;;;9.40;1.88;;;;;;;13.60;69.37;101454.63;5065370;28;20017;-66
2022/11/01 10:16:40;;;;;;;12.07;1.60;;;;;;;13.67;69.13;101453.91;5065258;28;20024;-66
2022/11/01 10:19:17;;;;;;;12.38;2.30;;;;;;;13.72;68.95;101463.63;5060543;28;20100;-66
2022/11/01 10:21:48;;;;;;;9.48;1.88;;;;;;;13.76;68.27;101458.47;5064921;28;20033;-66
2022/11/01 10:24:26;;;;;;;9.57;1.70;;;;;;;13.74;67.69;101459.34;5065618;28;20271;-66
2022/11/01 10:27:24;;;;;;;7.13;1.60;;;;;;;13.76;68.88;101454.13;5064467;28;20036;-66
2022/11/01 10:30:03;;;;;;;11.25;1.90;;;;;;;13.82;68.68;101454.25;5065890;28;20064;-66
2022/11/01 10:32:42;;;;;;;9.38;1.70;;;;;;;13.94;68.71;101461.44;5065554;28;20056;-67
2022/11/01 10:35:19;;;;;;;12.03;2.10;;;;;;;14.05;68.42;101452.06;5065092;28;20024;-66
2022/11/01 10:37:56;;;;;;;10.07;1.95;;;;;;;14.17;68.37;101458.41;5065848;28;20285;-66
2022/11/01 10:40:32;;;;;;;12.95;2.00;;;;;;;14.25;67.49;101459.41;5065708;28;20025;-66
2022/11/01 10:42:58;;;;;;;9.63;2.08;;;;;;;14.31;67.12;101454.28;5065571;28;20031;-66
2022/11/01 10:45:24;;;;;;;9.60;1.85;;;;;;;14.41;67.12;101463.19;5065371;28;20036;-66
2022/11/01 10:47:56;;;;;;;8.65;1.70;;;;;;;14.46;66.73;101458.91;5064411;28;20048;-66
2022/11/01 10:50:26;;;;;;;7.38;1.60;;;;;;;14.56;67.62;101457.34;5065350;28;20167;-66
2022/11/01 10:52:58;;;;;;;8.70;1.60;;;;;;;14.65;66.93;101464.50;5064384;28;20071;-66
2022/11/01 10:55:50;;;;;;;9.55;1.50;;;;;;;14.73;66.74;101455.91;5064420;28;20193;-66
2022/11/01 10:58:20;;;;;;;7.25;2.00;;;;;;;14.77;66.11;101454.22;5065545;28;20255;-66
2022/11/01 11:00:46;;;;;;;10.20;2.08;;;;;;;14.85;66.62;101459.59;5065446;28;20021;-66
2022/11/01 11:03:24;;;;;;;11.85;2.08;;;;;;;14.93;66.99;101457.97;5065069;28;20282;-66
2022/11/01 11:05:51;;;;;;;8.73;1.83;;;;;;;15.02;65.76;101465.09;5064223;28;20025;-66
2022/11/01 11:08:20;;;;;;;7.95;1.98;;;;;;;15.06;65.14;101456.41;5064820;28;20021;-66
2022/11/01 11:10:47;;;;;;;7.65;1.75;;;;;;;15.08;64.20;101454.69;5065135;28;20028;-66
2022/11/01 11:13:15;;;;;;;10.65;1.88;;;;;;;15.07;63.96;101451.19;5064793;28;20052;-66
2022/11/01 11:15:51;;;;;;;9.30;1.40;;;;;;;15.10;65.14;101445.09;5064215;28;20041;-66
2022/11/01 11:18:37;;;;;;;7.22;1.55;;;;;;;15.15;65.19;101456.56;5064910;28;20247;-66
2022/11/01 11:21:21;;;;;;;7.15;1.70;;;;;;;15.19;65.35;101467.97;5064121;28;20017;-66
2022/11/01 11:23:46;;;;;;;8.93;1.50;;;;;;;15.24;64.73;101453.19;5051292;28;20028;-66
2022/11/01 11:26:16;;;;;;;9.82;2.00;;;;;;;15.28;64.35;101447.13;5064665;28;20017;-69
2022/11/01 11:28:46;;;;;;;9.80;1.77;;;;;;;15.33;64.36;101450.66;5064576;28;20036;-76
2022/11/01 11:31:30;;;;;;;7.78;1.35;;;;;;;15.38;64.84;101451.63;5063382;28;20025;-77
2022/11/01 11:33:59;;;;;;;9.52;1.65;;;;;;;15.45;64.25;101444.69;5064665;28;20055;-76
2022/11/01 11:36:28;;;;;;;7.22;1.73;;;;;;;15.51;63.76;101449.16;5064382;28;20029;-76
2022/11/01 11:38:54;;;;;;;9.85;1.90;;;;;;;15.53;64.42;101445.69;5064514;28;20405;-75